createdAt,value
2019-03-31T08:22:09.668Z,99.90
2019-03-31T08:24:45.801Z,99.90
2019-03-31T08:27:16.816Z,99.90
2019-03-31T08:29:55.408Z,99.90
2019-03-31T08:32:19.274Z,99.90
2019-03-31T08:34:49.676Z,99.90
2019-03-31T08:37:20.056Z,99.90
2019-03-31T08:39:50.452Z,99.90
2019-03-31T08:42:20.821Z,99.90
2019-03-31T08:44:51.220Z,99.90
2019-03-31T08:47:21.757Z,99.90
2019-03-31T08:49:52.149Z,99.90
2019-03-31T08:52:22.528Z,97.50
2019-03-31T08:54:52.949Z,78.50
2019-03-31T08:57:23.324Z,74.00
2019-03-31T08:59:53.719Z,75.00
2019-03-31T09:02:25.722Z,74.80
2019-03-31T09:04:56.126Z,74.80
2019-03-31T09:07:26.509Z,86.30
2019-03-31T09:09:56.900Z,89.20
2019-03-31T09:12:27.273Z,94.80
2019-03-31T09:14:57.662Z,98.50
2019-03-31T09:17:28.035Z,99.90
2019-03-31T09:19:58.440Z,99.90
2019-03-31T09:22:28.806Z,99.90
2019-03-31T09:24:59.196Z,99.90
2019-03-31T09:27:29.563Z,99.90
2019-03-31T09:29:59.950Z,99.90
2019-03-31T09:32:30.317Z,99.90
2019-03-31T09:35:00.713Z,99.90
2019-03-31T09:37:31.080Z,99.90
2019-03-31T09:40:01.468Z,99.90
2019-03-31T09:42:31.831Z,99.90
2019-03-31T09:45:02.222Z,99.90
2019-03-31T09:47:32.586Z,99.90
2019-03-31T09:50:03.353Z,99.90
2019-03-31T09:52:33.711Z,99.90
2019-03-31T09:55:06.647Z,99.90
2019-03-31T09:57:37.030Z,99.90
2019-03-31T10:00:17.632Z,99.90
2019-03-31T10:02:48.008Z,99.90
2019-03-31T10:05:18.839Z,99.90
2019-03-31T10:07:49.203Z,99.90
2019-03-31T10:10:33.277Z,99.90
2019-03-31T10:13:03.641Z,99.90
2019-03-31T10:15:34.051Z,99.90
2019-03-31T10:18:04.402Z,99.90
2019-03-31T10:20:35.217Z,99.90
2019-03-31T10:23:06.027Z,99.90
2019-03-31T10:25:40.497Z,99.90
2019-03-31T10:28:10.830Z,99.90
2019-03-31T10:30:42.112Z,99.90
2019-03-31T10:33:12.476Z,99.90
2019-03-31T10:35:42.939Z,99.90
2019-03-31T10:38:13.314Z,97.80
2019-03-31T10:40:44.099Z,96.80
2019-03-31T10:43:14.466Z,95.00
2019-03-31T10:45:44.863Z,94.10
2019-03-31T10:48:20.967Z,97.00
2019-03-31T10:50:47.473Z,90.40
2019-03-31T10:53:18.058Z,76.30
2019-03-31T10:55:48.450Z,70.30
2019-03-31T10:58:18.992Z,62.80
2019-03-31T11:00:49.384Z,64.20
2019-03-31T11:03:20.086Z,71.50
2019-03-31T11:05:50.474Z,82.10
2019-03-31T11:08:20.829Z,82.10
2019-03-31T11:10:51.215Z,87.10
2019-03-31T11:13:21.661Z,91.00
2019-03-31T11:15:52.053Z,94.90
2019-03-31T11:18:22.536Z,78.50
2019-03-31T11:20:53.123Z,64.40
2019-03-31T11:23:25.403Z,55.70
2019-03-31T11:25:56.162Z,60.30
2019-03-31T11:28:26.532Z,64.70
2019-03-31T11:30:57.256Z,70.00
2019-03-31T11:33:27.694Z,77.70
2019-03-31T11:35:58.185Z,73.30
2019-03-31T11:38:28.642Z,78.90
2019-03-31T11:40:59.025Z,79.30
2019-03-31T11:43:29.403Z,81.60
2019-03-31T11:45:59.793Z,86.90
2019-03-31T11:48:30.154Z,81.80
2019-03-31T11:51:00.619Z,58.40
2019-03-31T11:53:31.014Z,49.60
2019-03-31T11:56:01.390Z,44.10
2019-03-31T11:58:35.866Z,42.50
2019-03-31T12:01:06.210Z,39.10
2019-03-31T12:03:36.671Z,38.10
2019-03-31T12:06:11.383Z,39.20
2019-03-31T12:08:41.971Z,40.40
2019-03-31T12:11:12.338Z,38.60
2019-03-31T12:13:42.728Z,33.90
2019-03-31T12:16:13.112Z,36.00
2019-03-31T12:18:43.489Z,39.00
2019-03-31T12:21:13.851Z,43.60
2019-03-31T12:23:44.226Z,48.10
2019-03-31T12:26:14.584Z,51.30
2019-03-31T12:28:44.974Z,52.90
2019-03-31T12:31:27.928Z,46.30
2019-03-31T12:33:59.373Z,42.60
2019-03-31T12:36:29.936Z,40.50
2019-03-31T12:39:00.348Z,35.90
2019-03-31T12:41:30.865Z,34.00
2019-03-31T12:44:01.240Z,32.50
2019-03-31T12:46:31.600Z,30.20
2019-03-31T12:49:02.318Z,31.20
2019-03-31T12:51:32.669Z,32.20
2019-03-31T12:54:03.060Z,35.90
2019-03-31T12:56:33.414Z,39.10
2019-03-31T12:59:04.050Z,44.40
2019-03-31T13:01:34.406Z,45.30
2019-03-31T13:04:05.051Z,50.40
2019-03-31T13:06:35.505Z,44.90
2019-03-31T13:09:08.522Z,44.10
2019-03-31T13:11:40.420Z,44.90
2019-03-31T13:14:10.926Z,44.80
2019-03-31T13:16:41.277Z,45.00
2019-03-31T13:19:11.722Z,42.60
2019-03-31T13:21:42.060Z,36.40
2019-03-31T13:24:12.620Z,38.60
2019-03-31T13:26:43.081Z,39.20
2019-03-31T13:29:13.515Z,38.80
2019-03-31T13:31:43.884Z,39.80
2019-03-31T13:34:15.316Z,38.00
2019-03-31T13:36:45.653Z,40.40
2019-03-31T13:39:16.135Z,42.70
2019-03-31T13:41:47.192Z,48.20
2019-03-31T13:44:18.078Z,49.10
2019-03-31T13:46:48.470Z,50.00
2019-03-31T13:49:18.867Z,48.00
2019-03-31T13:51:49.219Z,46.10
2019-03-31T13:54:19.604Z,48.50
2019-03-31T13:56:50.668Z,45.70
2019-03-31T13:59:21.232Z,46.60
2019-03-31T14:01:51.599Z,47.70
2019-03-31T14:04:21.980Z,48.90
2019-03-31T14:06:52.334Z,50.10
2019-03-31T14:09:22.721Z,47.00
2019-03-31T14:11:53.133Z,48.50
2019-03-31T14:14:23.528Z,46.80
2019-03-31T14:16:53.888Z,42.70
2019-03-31T14:19:24.332Z,44.00
2019-03-31T14:21:54.748Z,42.90
2019-03-31T14:24:26.970Z,42.70
2019-03-31T14:26:57.187Z,44.20
2019-03-31T14:29:27.569Z,45.20
2019-03-31T14:31:57.923Z,44.90
2019-03-31T14:34:28.338Z,47.80
2019-03-31T14:36:58.699Z,48.10
2019-03-31T14:39:30.150Z,48.50
2019-03-31T14:42:00.511Z,50.40
2019-03-31T14:44:30.905Z,51.40
2019-03-31T14:47:01.255Z,50.10
2019-03-31T14:49:31.648Z,51.90
2019-03-31T14:52:02.012Z,52.60
2019-03-31T14:54:32.394Z,52.70
2019-03-31T14:57:05.777Z,56.00
2019-03-31T14:59:34.846Z,56.30
2019-03-31T15:02:05.199Z,55.60
2019-03-31T15:04:35.580Z,55.80
2019-03-31T15:07:05.949Z,57.60
2019-03-31T15:09:36.327Z,58.40
2019-03-31T15:12:06.695Z,56.00
2019-03-31T15:14:37.085Z,58.20
2019-03-31T15:17:07.440Z,60.90
2019-03-31T15:19:37.820Z,62.00
2019-03-31T15:22:08.180Z,60.00
2019-03-31T15:24:38.581Z,60.80
2019-03-31T15:27:08.926Z,60.20
2019-03-31T15:29:39.320Z,64.20
2019-03-31T15:32:09.682Z,61.90
2019-03-31T15:34:40.062Z,60.50
2019-03-31T15:37:10.424Z,60.60
2019-03-31T15:39:40.813Z,62.00
2019-03-31T15:42:11.178Z,61.80
2019-03-31T15:44:41.566Z,61.50
2019-03-31T15:47:11.962Z,62.30
2019-03-31T15:49:42.326Z,62.90
2019-03-31T15:52:12.711Z,63.20
2019-03-31T15:54:43.079Z,63.90
2019-03-31T15:57:13.462Z,63.80
2019-03-31T15:59:53.839Z,63.90
2019-03-31T16:02:25.864Z,64.50
2019-03-31T16:04:56.249Z,67.80
2019-03-31T16:07:26.641Z,68.00
2019-03-31T16:09:57.005Z,65.60
2019-03-31T16:12:27.404Z,64.70
2019-03-31T16:14:57.764Z,65.70
2019-03-31T16:17:28.154Z,67.60
2019-03-31T16:19:58.510Z,66.00
2019-03-31T16:22:28.916Z,65.50
2019-03-31T16:25:00.918Z,64.70
2019-03-31T16:27:31.857Z,61.50
2019-03-31T16:30:02.282Z,65.20
2019-03-31T16:32:32.880Z,66.10
2019-03-31T16:35:03.740Z,67.20
2019-03-31T16:37:34.703Z,68.00
2019-03-31T16:40:07.854Z,66.60
2019-03-31T16:42:38.517Z,66.80
2019-03-31T16:45:09.066Z,67.50
2019-03-31T16:47:39.990Z,66.70
2019-03-31T16:50:11.323Z,68.00
2019-03-31T16:52:54.076Z,62.90
2019-03-31T16:55:24.724Z,64.20
2019-03-31T16:57:55.615Z,63.40
2019-03-31T17:00:26.151Z,66.80
2019-03-31T17:02:57.013Z,64.50
2019-03-31T17:05:27.707Z,67.70
2019-03-31T17:07:58.281Z,65.50
2019-03-31T17:10:29.191Z,66.00
2019-03-31T17:12:59.759Z,68.00
2019-03-31T17:15:30.246Z,68.90
2019-03-31T17:18:01.516Z,68.20
2019-03-31T17:20:33.738Z,70.50
2019-03-31T17:23:04.260Z,71.70
2019-03-31T17:25:34.802Z,72.70
2019-03-31T17:28:05.632Z,75.00
2019-03-31T17:30:36.193Z,76.20
2019-03-31T17:33:06.966Z,74.10
2019-03-31T17:35:38.869Z,74.20
2019-03-31T17:38:09.407Z,74.80
2019-03-31T17:40:40.046Z,75.10
2019-03-31T17:43:10.858Z,75.20
2019-03-31T17:45:41.419Z,75.70
2019-03-31T17:48:12.044Z,76.00
2019-03-31T17:50:44.128Z,75.50
2019-03-31T17:53:14.935Z,75.90
2019-03-31T17:55:45.353Z,79.40
2019-03-31T17:58:16.201Z,81.90
2019-03-31T18:00:46.605Z,81.40
2019-03-31T18:03:17.191Z,84.30
2019-03-31T18:05:48.857Z,87.20
2019-03-31T18:08:19.725Z,86.30
2019-03-31T18:10:50.211Z,86.80
2019-03-31T18:13:21.046Z,87.00
2019-03-31T18:15:51.712Z,89.50
2019-03-31T18:18:22.298Z,90.10
2019-03-31T18:20:53.073Z,92.20
2019-03-31T18:23:23.587Z,92.70
2019-03-31T18:25:54.005Z,93.40
2019-03-31T18:28:24.376Z,94.70
2019-03-31T18:30:54.730Z,96.10
2019-03-31T18:33:25.111Z,97.10
2019-03-31T18:35:55.709Z,97.90
2019-03-31T18:38:26.083Z,99.10
2019-03-31T18:40:56.440Z,99.10
2019-03-31T18:43:26.809Z,99.10
2019-03-31T18:45:57.349Z,99.40
2019-03-31T18:48:27.720Z,99.60
2019-03-31T18:50:58.159Z,99.60
2019-03-31T18:53:32.679Z,99.90
2019-03-31T18:56:13.501Z,99.90
2019-03-31T18:58:45.485Z,99.90
2019-03-31T19:01:33.799Z,99.90
2019-03-31T19:04:12.026Z,99.90
2019-03-31T19:06:44.031Z,99.90
2019-03-31T19:09:22.024Z,99.90
2019-03-31T19:12:10.616Z,99.90
2019-03-31T19:14:45.336Z,99.90
2019-03-31T19:17:34.642Z,99.90
2019-03-31T19:20:19.241Z,99.90
2019-03-31T19:22:51.237Z,99.90
2019-03-31T19:25:32.239Z,99.90
2019-03-31T19:28:10.422Z,99.90
2019-03-31T19:31:00.690Z,99.90
2019-03-31T19:33:48.909Z,99.90
2019-03-31T19:36:20.923Z,99.90
2019-03-31T19:39:09.474Z,99.90
2019-03-31T19:41:41.589Z,99.90
2019-03-31T19:44:29.906Z,99.90
2019-03-31T19:47:01.914Z,99.90
2019-03-31T19:49:36.855Z,99.90
2019-03-31T19:52:18.978Z,99.90
2019-03-31T19:54:57.088Z,99.90
2019-03-31T19:57:35.414Z,99.90
2019-03-31T20:00:09.950Z,99.90
2019-03-31T20:02:45.261Z,99.90
2019-03-31T20:05:23.501Z,99.90
2019-03-31T20:08:01.564Z,99.90
2019-03-31T20:10:33.622Z,99.90
2019-03-31T20:13:06.556Z,99.90
2019-03-31T20:15:38.573Z,99.90
2019-03-31T20:18:27.000Z,99.90
2019-03-31T20:21:31.862Z,99.90
2019-03-31T20:24:10.407Z,99.90
2019-03-31T20:26:42.851Z,99.90
2019-03-31T20:29:14.843Z,99.90
2019-03-31T20:31:46.863Z,99.90
2019-03-31T20:34:27.589Z,99.90
2019-03-31T20:37:15.800Z,99.10
2019-03-31T20:39:56.432Z,99.60
2019-03-31T20:42:24.190Z,99.80
2019-03-31T20:44:54.590Z,99.50
2019-03-31T20:47:24.977Z,99.90
2019-03-31T20:49:55.321Z,99.90
2019-03-31T20:52:25.735Z,99.50
2019-03-31T20:54:56.087Z,99.90
2019-03-31T20:57:26.471Z,99.90
2019-03-31T20:59:56.819Z,99.90
2019-03-31T21:02:27.194Z,99.90
2019-03-31T21:04:57.545Z,99.90
2019-03-31T21:07:28.885Z,99.90
2019-03-31T21:09:59.233Z,99.90
2019-03-31T21:12:29.636Z,99.90
2019-03-31T21:14:59.987Z,99.90
2019-03-31T21:17:30.382Z,99.90
2019-03-31T21:20:00.760Z,99.90
2019-03-31T21:22:31.115Z,99.90
2019-03-31T21:25:01.466Z,99.90
2019-03-31T21:27:31.853Z,99.90
2019-03-31T21:30:02.207Z,99.90
2019-03-31T21:32:32.576Z,99.90
2019-03-31T21:35:03.131Z,99.90
2019-03-31T21:37:33.488Z,99.90
2019-03-31T21:40:05.909Z,99.90
2019-03-31T21:42:36.265Z,99.90
2019-03-31T21:45:07.171Z,99.90
2019-03-31T21:47:37.516Z,99.90
2019-03-31T21:50:09.112Z,99.90
2019-03-31T21:52:39.459Z,99.90
2019-03-31T21:55:09.900Z,99.90
2019-03-31T21:57:40.255Z,99.90
2019-03-31T22:00:12.520Z,99.90
2019-03-31T22:02:44.476Z,99.90
2019-03-31T22:05:14.860Z,99.90
2019-03-31T22:07:45.205Z,99.90
2019-03-31T22:10:15.576Z,99.90
2019-03-31T22:12:46.016Z,99.90
2019-03-31T22:15:16.718Z,99.90
2019-03-31T22:17:47.220Z,99.90
2019-03-31T22:20:17.704Z,99.90
2019-03-31T22:22:48.064Z,99.90
2019-03-31T22:25:18.501Z,99.90
2019-03-31T22:27:48.791Z,99.90
2019-03-31T22:30:19.170Z,99.90
2019-03-31T22:32:49.515Z,99.90
2019-03-31T22:35:19.883Z,99.90
2019-03-31T22:37:50.238Z,99.90
2019-03-31T22:40:20.605Z,99.90
2019-03-31T22:42:50.952Z,99.90
2019-03-31T22:45:21.333Z,99.90
2019-03-31T22:47:51.690Z,99.90
2019-03-31T22:50:22.073Z,99.90
2019-03-31T22:52:52.428Z,99.90
2019-03-31T22:55:22.796Z,99.90
2019-03-31T22:57:53.150Z,99.90
2019-03-31T23:00:25.177Z,99.90
2019-03-31T23:02:55.520Z,99.90
2019-03-31T23:05:25.890Z,99.90
2019-03-31T23:07:56.249Z,99.90
2019-03-31T23:10:26.625Z,99.90
2019-03-31T23:12:56.975Z,99.90
2019-03-31T23:15:27.351Z,99.90
2019-03-31T23:17:57.700Z,99.90
2019-03-31T23:20:28.075Z,99.90
2019-03-31T23:22:58.432Z,99.90
2019-03-31T23:25:28.804Z,99.90
2019-03-31T23:27:59.153Z,99.90
2019-03-31T23:30:29.537Z,99.90
2019-03-31T23:32:59.884Z,99.90
2019-03-31T23:35:30.262Z,99.90
2019-03-31T23:38:00.613Z,99.90
2019-03-31T23:40:30.987Z,99.90
2019-03-31T23:43:01.336Z,99.90
2019-03-31T23:45:32.749Z,99.90
2019-03-31T23:48:03.102Z,99.90
2019-03-31T23:50:33.472Z,99.90
2019-03-31T23:53:03.845Z,99.90
2019-03-31T23:55:34.194Z,99.90
2019-03-31T23:58:04.635Z,99.90
